sensor_id;sensor_type;location;lat;lon;timestamp;pressure;altitude;pressure_sealevel;temperature;humidity
75699;BME280;64313;51.018;13.742;2023-12-04T00:01:18;100201.47;;;-1.93;69.96
75699;BME280;64313;51.018;13.742;2023-12-04T00:03:44;100197.16;;;-1.94;69.88
75699;BME280;64313;51.018;13.742;2023-12-04T00:06:11;100202.50;;;-1.95;69.85
75699;BME280;64313;51.018;13.742;2023-12-04T00:08:36;100217.34;;;-1.96;70.30
75699;BME280;64313;51.018;13.742;2023-12-04T00:11:03;100219.97;;;-1.96;70.43
75699;BME280;64313;51.018;13.742;2023-12-04T00:13:28;100218.31;;;-1.97;69.86
75699;BME280;64313;51.018;13.742;2023-12-04T00:15:54;100217.34;;;-1.96;69.90
75699;BME280;64313;51.018;13.742;2023-12-04T00:18:19;100212.97;;;-1.95;69.41
75699;BME280;64313;51.018;13.742;2023-12-04T00:20:44;100209.66;;;-1.97;69.32
75699;BME280;64313;51.018;13.742;2023-12-04T00:23:10;100203.81;;;-2.01;68.86
75699;BME280;64313;51.018;13.742;2023-12-04T00:25:35;100203.34;;;-2.06;68.93
75699;BME280;64313;51.018;13.742;2023-12-04T00:28:00;100203.66;;;-2.10;68.76
75699;BME280;64313;51.018;13.742;2023-12-04T00:30:25;100200.56;;;-2.15;69.25
75699;BME280;64313;51.018;13.742;2023-12-04T00:32:51;100208.66;;;-2.19;68.96
75699;BME280;64313;51.018;13.742;2023-12-04T00:35:16;100200.06;;;-2.21;69.34
75699;BME280;64313;51.018;13.742;2023-12-04T00:37:41;100197.69;;;-2.24;69.45
75699;BME280;64313;51.018;13.742;2023-12-04T00:40:07;100192.59;;;-2.25;69.76
75699;BME280;64313;51.018;13.742;2023-12-04T00:42:33;100192.81;;;-2.28;69.61
75699;BME280;64313;51.018;13.742;2023-12-04T00:44:58;100196.38;;;-2.29;69.67
75699;BME280;64313;51.018;13.742;2023-12-04T00:47:23;100191.16;;;-2.29;69.52
75699;BME280;64313;51.018;13.742;2023-12-04T00:49:49;100187.81;;;-2.31;69.40
75699;BME280;64313;51.018;13.742;2023-12-04T00:52:14;100188.88;;;-2.34;69.00
75699;BME280;64313;51.018;13.742;2023-12-04T00:54:40;100199.56;;;-2.37;70.01
75699;BME280;64313;51.018;13.742;2023-12-04T00:57:06;100186.59;;;-2.38;69.75
75699;BME280;64313;51.018;13.742;2023-12-04T00:59:31;100183.25;;;-2.40;70.47
75699;BME280;64313;51.018;13.742;2023-12-04T01:01:57;100179.94;;;-2.42;70.00
75699;BME280;64313;51.018;13.742;2023-12-04T01:04:22;100183.59;;;-2.45;69.71
75699;BME280;64313;51.018;13.742;2023-12-04T01:06:47;100173.38;;;-2.48;69.25
75699;BME280;64313;51.018;13.742;2023-12-04T01:09:12;100171.03;;;-2.51;69.02
75699;BME280;64313;51.018;13.742;2023-12-04T01:11:38;100179.19;;;-2.56;69.18
75699;BME280;64313;51.018;13.742;2023-12-04T01:14:04;100180.34;;;-2.60;69.46
75699;BME280;64313;51.018;13.742;2023-12-04T01:16:29;100178.19;;;-2.66;69.27
75699;BME280;64313;51.018;13.742;2023-12-04T01:18:54;100181.13;;;-2.70;69.29
75699;BME280;64313;51.018;13.742;2023-12-04T01:21:20;100193.69;;;-2.76;69.37
75699;BME280;64313;51.018;13.742;2023-12-04T01:23:45;100193.91;;;-2.79;69.34
75699;BME280;64313;51.018;13.742;2023-12-04T01:26:10;100200.31;;;-2.83;69.54
75699;BME280;64313;51.018;13.742;2023-12-04T01:28:37;100202.28;;;-2.86;69.25
75699;BME280;64313;51.018;13.742;2023-12-04T01:31:02;100207.81;;;-2.91;70.01
75699;BME280;64313;51.018;13.742;2023-12-04T01:33:28;100203.78;;;-2.95;69.31
75699;BME280;64313;51.018;13.742;2023-12-04T01:35:54;100203.03;;;-2.97;69.61
75699;BME280;64313;51.018;13.742;2023-12-04T01:38:19;100204.09;;;-3.00;69.66
75699;BME280;64313;51.018;13.742;2023-12-04T01:40:44;100206.09;;;-3.03;69.61
75699;BME280;64313;51.018;13.742;2023-12-04T01:43:09;100203.72;;;-3.06;69.81
75699;BME280;64313;51.018;13.742;2023-12-04T01:45:35;100201.22;;;-3.08;69.65
75699;BME280;64313;51.018;13.742;2023-12-04T01:48:00;100198.91;;;-3.12;69.87
75699;BME280;64313;51.018;13.742;2023-12-04T01:50:27;100196.44;;;-3.14;69.82
75699;BME280;64313;51.018;13.742;2023-12-04T01:52:52;100197.38;;;-3.15;69.59
75699;BME280;64313;51.018;13.742;2023-12-04T01:55:18;100190.47;;;-3.16;69.94
75699;BME280;64313;51.018;13.742;2023-12-04T01:57:44;100183.59;;;-3.17;69.52
75699;BME280;64313;51.018;13.742;2023-12-04T02:00:10;100186.19;;;-3.17;70.04
75699;BME280;64313;51.018;13.742;2023-12-04T02:02:40;100194.84;;;-3.16;69.12
75699;BME280;64313;51.018;13.742;2023-12-04T02:05:11;100184.75;;;-3.21;69.35
75699;BME280;64313;51.018;13.742;2023-12-04T02:07:36;100190.06;;;-3.22;69.49
75699;BME280;64313;51.018;13.742;2023-12-04T02:10:02;100176.19;;;-3.23;68.95
75699;BME280;64313;51.018;13.742;2023-12-04T02:12:28;100185.06;;;-3.25;69.08
75699;BME280;64313;51.018;13.742;2023-12-04T02:14:53;100170.38;;;-3.27;68.81
75699;BME280;64313;51.018;13.742;2023-12-04T02:17:19;100170.56;;;-3.30;68.81
75699;BME280;64313;51.018;13.742;2023-12-04T02:19:45;100166.41;;;-3.32;68.53
75699;BME280;64313;51.018;13.742;2023-12-04T02:22:11;100162.28;;;-3.35;68.85
75699;BME280;64313;51.018;13.742;2023-12-04T02:24:36;100158.19;;;-3.39;68.39
75699;BME280;64313;51.018;13.742;2023-12-04T02:27:25;100150.38;;;-3.39;68.76
75699;BME280;64313;51.018;13.742;2023-12-04T02:30:01;100150.56;;;-3.42;68.22
75699;BME280;64313;51.018;13.742;2023-12-04T02:32:30;100149.03;;;-3.44;68.66
75699;BME280;64313;51.018;13.742;2023-12-04T02:34:57;100147.38;;;-3.45;68.20
75699;BME280;64313;51.018;13.742;2023-12-04T02:37:25;100152.69;;;-3.47;67.94
75699;BME280;64313;51.018;13.742;2023-12-04T02:39:51;100150.09;;;-3.47;67.74
75699;BME280;64313;51.018;13.742;2023-12-04T02:42:20;100142.34;;;-3.48;67.96
75699;BME280;64313;51.018;13.742;2023-12-04T02:44:45;100133.81;;;-3.50;67.48
75699;BME280;64313;51.018;13.742;2023-12-04T02:47:11;100131.31;;;-3.52;67.57
75699;BME280;64313;51.018;13.742;2023-12-04T02:49:36;100131.53;;;-3.55;67.93
75699;BME280;64313;51.018;13.742;2023-12-04T02:52:02;100126.31;;;-3.55;68.37
75699;BME280;64313;51.018;13.742;2023-12-04T02:54:28;100119.44;;;-3.56;68.31
75699;BME280;64313;51.018;13.742;2023-12-04T02:56:53;100110.06;;;-3.59;68.95
75699;BME280;64313;51.018;13.742;2023-12-04T02:59:19;100116.22;;;-3.60;68.78
75699;BME280;64313;51.018;13.742;2023-12-04T03:01:44;100104.97;;;-3.60;68.89
75699;BME280;64313;51.018;13.742;2023-12-04T03:04:09;100099.84;;;-3.62;69.06
75699;BME280;64313;51.018;13.742;2023-12-04T03:06:35;100102.38;;;-3.60;69.46
75699;BME280;64313;51.018;13.742;2023-12-04T03:09:00;100091.94;;;-3.60;69.24
75699;BME280;64313;51.018;13.742;2023-12-04T03:11:25;100091.81;;;-3.59;69.75
75699;BME280;64313;51.018;13.742;2023-12-04T03:13:51;100085.66;;;-3.58;69.88
75699;BME280;64313;51.018;13.742;2023-12-04T03:16:17;100095.97;;;-3.56;69.65
75699;BME280;64313;51.018;13.742;2023-12-04T03:18:42;100097.63;;;-3.55;69.78
75699;BME280;64313;51.018;13.742;2023-12-04T03:21:08;100096.72;;;-3.54;70.17
75699;BME280;64313;51.018;13.742;2023-12-04T03:23:33;100096.81;;;-3.56;69.99
75699;BME280;64313;51.018;13.742;2023-12-04T03:25:58;100090.63;;;-3.55;69.99
75699;BME280;64313;51.018;13.742;2023-12-04T03:28:23;100094.13;;;-3.54;70.42
75699;BME280;64313;51.018;13.742;2023-12-04T03:30:49;100087.22;;;-3.55;70.94
75699;BME280;64313;51.018;13.742;2023-12-04T03:33:14;100090.63;;;-3.55;70.51
75699;BME280;64313;51.018;13.742;2023-12-04T03:35:39;100093.38;;;-3.56;71.28
75699;BME280;64313;51.018;13.742;2023-12-04T03:38:05;100083.06;;;-3.58;71.12
75699;BME280;64313;51.018;13.742;2023-12-04T03:40:31;100080.56;;;-3.59;71.19
75699;BME280;64313;51.018;13.742;2023-12-04T03:42:56;100073.69;;;-3.60;71.75
75699;BME280;64313;51.018;13.742;2023-12-04T03:45:21;100078.91;;;-3.60;72.05
75699;BME280;64313;51.018;13.742;2023-12-04T03:47:47;100073.78;;;-3.62;71.72
75699;BME280;64313;51.018;13.742;2023-12-04T03:50:12;100069.38;;;-3.61;72.35
75699;BME280;64313;51.018;13.742;2023-12-04T03:52:37;100071.16;;;-3.62;71.56
75699;BME280;64313;51.018;13.742;2023-12-04T03:55:03;100072.13;;;-3.63;71.56
75699;BME280;64313;51.018;13.742;2023-12-04T03:57:28;100074.84;;;-3.64;71.94
75699;BME280;64313;51.018;13.742;2023-12-04T03:59:54;100081.72;;;-3.63;71.94
75699;BME280;64313;51.018;13.742;2023-12-04T04:02:19;100071.41;;;-3.65;72.24
75699;BME280;64313;51.018;13.742;2023-12-04T04:04:44;100074.94;;;-3.66;72.33
75699;BME280;64313;51.018;13.742;2023-12-04T04:07:10;100081.81;;;-3.65;72.32
75699;BME280;64313;51.018;13.742;2023-12-04T04:09:35;100067.22;;;-3.67;72.33
75699;BME280;64313;51.018;13.742;2023-12-04T04:12:00;100078.50;;;-3.67;72.14
75699;BME280;64313;51.018;13.742;2023-12-04T04:14:26;100076.81;;;-3.68;72.40
75699;BME280;64313;51.018;13.742;2023-12-04T04:16:51;100067.34;;;-3.69;72.77
75699;BME280;64313;51.018;13.742;2023-12-04T04:19:16;100070.88;;;-3.70;73.12
75699;BME280;64313;51.018;13.742;2023-12-04T04:21:42;100068.41;;;-3.71;72.62
75699;BME280;64313;51.018;13.742;2023-12-04T04:24:07;100065.91;;;-3.73;72.56
75699;BME280;64313;51.018;13.742;2023-12-04T04:26:32;100062.47;;;-3.73;72.42
75699;BME280;64313;51.018;13.742;2023-12-04T04:28:58;100063.38;;;-3.74;73.02
75699;BME280;64313;51.018;13.742;2023-12-04T04:31:23;100057.34;;;-3.75;72.88
75699;BME280;64313;51.018;13.742;2023-12-04T04:33:48;100044.31;;;-3.75;72.75
75699;BME280;64313;51.018;13.742;2023-12-04T04:36:14;100041.81;;;-3.76;73.01
75699;BME280;64313;51.018;13.742;2023-12-04T04:38:39;100037.56;;;-3.77;72.88
75699;BME280;64313;51.018;13.742;2023-12-04T04:41:05;100035.88;;;-3.78;72.85
75699;BME280;64313;51.018;13.742;2023-12-04T04:43:31;100038.59;;;-3.80;72.67
75699;BME280;64313;51.018;13.742;2023-12-04T04:45:56;100039.53;;;-3.81;72.60
75699;BME280;64313;51.018;13.742;2023-12-04T04:48:21;100037.75;;;-3.81;73.13
75699;BME280;64313;51.018;13.742;2023-12-04T04:50:46;100024.84;;;-3.82;73.01
75699;BME280;64313;51.018;13.742;2023-12-04T04:53:12;100031.81;;;-3.83;72.62
75699;BME280;64313;51.018;13.742;2023-12-04T04:55:37;100026.63;;;-3.83;73.21
75699;BME280;64313;51.018;13.742;2023-12-04T04:58:02;100032.78;;;-3.84;72.69
75699;BME280;64313;51.018;13.742;2023-12-04T05:00:28;100020.69;;;-3.85;73.13
75699;BME280;64313;51.018;13.742;2023-12-04T05:02:53;100026.72;;;-3.84;73.37
75699;BME280;64313;51.018;13.742;2023-12-04T05:05:18;100027.56;;;-3.84;73.60
75699;BME280;64313;51.018;13.742;2023-12-04T05:07:44;100023.41;;;-3.86;73.34
75699;BME280;64313;51.018;13.742;2023-12-04T05:10:09;100027.75;;;-3.87;73.33
75699;BME280;64313;51.018;13.742;2023-12-04T05:12:34;100027.03;;;-3.89;73.23
75699;BME280;64313;51.018;13.742;2023-12-04T05:15:00;100031.31;;;-3.88;73.48
75699;BME280;64313;51.018;13.742;2023-12-04T05:17:25;100030.38;;;-3.87;73.55
75699;BME280;64313;51.018;13.742;2023-12-04T05:19:50;100027.88;;;-3.88;73.99
75699;BME280;64313;51.018;13.742;2023-12-04T05:22:16;100031.31;;;-3.88;74.33
75699;BME280;64313;51.018;13.742;2023-12-04T05:24:41;100030.47;;;-3.88;74.35
75699;BME280;64313;51.018;13.742;2023-12-04T05:27:06;100035.69;;;-3.88;73.79
75699;BME280;64313;51.018;13.742;2023-12-04T05:29:31;100032.97;;;-3.87;74.69
75699;BME280;64313;51.018;13.742;2023-12-04T05:31:57;100017.34;;;-3.87;74.29
75699;BME280;64313;51.018;13.742;2023-12-04T05:34:23;100023.28;;;-3.85;74.46
75699;BME280;64313;51.018;13.742;2023-12-04T05:36:48;100011.81;;;-3.82;74.99
75699;BME280;64313;51.018;13.742;2023-12-04T05:39:13;100005.66;;;-3.81;74.90
75699;BME280;64313;51.018;13.742;2023-12-04T05:41:39;99995.97;;;-3.79;75.12
75699;BME280;64313;51.018;13.742;2023-12-04T05:44:04;99995.97;;;-3.79;75.04
75699;BME280;64313;51.018;13.742;2023-12-04T05:46:29;99995.03;;;-3.78;75.12
75699;BME280;64313;51.018;13.742;2023-12-04T05:48:55;99986.25;;;-3.77;75.43
75699;BME280;64313;51.018;13.742;2023-12-04T05:51:20;99981.88;;;-3.76;75.36
75699;BME280;64313;51.018;13.742;2023-12-04T05:53:46;99979.16;;;-3.75;75.92
75699;BME280;64313;51.018;13.742;2023-12-04T05:56:11;99972.16;;;-3.74;75.40
75699;BME280;64313;51.018;13.742;2023-12-04T05:58:36;99965.19;;;-3.74;75.63
75699;BME280;64313;51.018;13.742;2023-12-04T06:01:02;99958.22;;;-3.73;76.14
75699;BME280;64313;51.018;13.742;2023-12-04T06:03:27;99943.41;;;-3.73;76.25
75699;BME280;64313;51.018;13.742;2023-12-04T06:05:53;99933.72;;;-3.71;76.16
75699;BME280;64313;51.018;13.742;2023-12-04T06:08:18;99935.38;;;-3.70;76.15
75699;BME280;64313;51.018;13.742;2023-12-04T06:10:43;99934.41;;;-3.69;75.87
75699;BME280;64313;51.018;13.742;2023-12-04T06:13:09;99928.25;;;-3.68;75.78
75699;BME280;64313;51.018;13.742;2023-12-04T06:15:34;99927.22;;;-3.65;75.87
75699;BME280;64313;51.018;13.742;2023-12-04T06:17:59;99933.25;;;-3.65;76.46
75699;BME280;64313;51.018;13.742;2023-12-04T06:20:24;99926.16;;;-3.63;76.32
75699;BME280;64313;51.018;13.742;2023-12-04T06:22:50;99939.19;;;-3.63;76.04
75699;BME280;64313;51.018;13.742;2023-12-04T06:25:15;99941.59;;;-3.60;76.14
75699;BME280;64313;51.018;13.742;2023-12-04T06:27:41;99941.59;;;-3.60;75.68
75699;BME280;64313;51.018;13.742;2023-12-04T06:30:07;99939.81;;;-3.59;76.03
75699;BME280;64313;51.018;13.742;2023-12-04T06:32:33;99938.84;;;-3.58;75.79
75699;BME280;64313;51.018;13.742;2023-12-04T06:34:58;99936.13;;;-3.57;75.91
75699;BME280;64313;51.018;13.742;2023-12-04T06:37:24;99936.97;;;-3.56;75.67
75699;BME280;64313;51.018;13.742;2023-12-04T06:39:49;99940.41;;;-3.56;75.38
75699;BME280;64313;51.018;13.742;2023-12-04T06:42:17;99946.44;;;-3.55;75.27
75699;BME280;64313;51.018;13.742;2023-12-04T06:44:43;99930.72;;;-3.53;75.77
75699;BME280;64313;51.018;13.742;2023-12-04T06:47:09;99940.31;;;-3.54;75.76
75699;BME280;64313;51.018;13.742;2023-12-04T06:49:34;99948.84;;;-3.52;75.31
75699;BME280;64313;51.018;13.742;2023-12-04T06:52:00;99942.78;;;-3.52;75.26
75699;BME280;64313;51.018;13.742;2023-12-04T06:54:26;99951.31;;;-3.50;75.38
75699;BME280;64313;51.018;13.742;2023-12-04T06:56:51;99952.16;;;-3.50;75.63
75699;BME280;64313;51.018;13.742;2023-12-04T06:59:17;99940.78;;;-3.49;75.09
75699;BME280;64313;51.018;13.742;2023-12-04T07:01:43;99958.94;;;-3.47;75.31
75699;BME280;64313;51.018;13.742;2023-12-04T07:04:08;99945.91;;;-3.47;75.42
75699;BME280;64313;51.018;13.742;2023-12-04T07:06:38;99948.38;;;-3.46;75.17
75699;BME280;64313;51.018;13.742;2023-12-04T07:09:03;99955.38;;;-3.46;75.24
75699;BME280;64313;51.018;13.742;2023-12-04T07:11:30;99960.47;;;-3.45;75.24
75699;BME280;64313;51.018;13.742;2023-12-04T07:13:55;99951.72;;;-3.44;74.78
75699;BME280;64313;51.018;13.742;2023-12-04T07:16:21;99955.25;;;-3.45;75.01
75699;BME280;64313;51.018;13.742;2023-12-04T07:18:46;99955.97;;;-3.43;75.01
75699;BME280;64313;51.018;13.742;2023-12-04T07:21:11;99945.53;;;-3.43;74.91
75699;BME280;64313;51.018;13.742;2023-12-04T07:23:36;99936.06;;;-3.44;74.65
75699;BME280;64313;51.018;13.742;2023-12-04T07:26:02;99928.13;;;-3.42;74.55
75699;BME280;64313;51.018;13.742;2023-12-04T07:28:28;99935.03;;;-3.41;74.78
75699;BME280;64313;51.018;13.742;2023-12-04T07:30:55;99925.31;;;-3.39;74.32
75699;BME280;64313;51.018;13.742;2023-12-04T07:33:20;99920.91;;;-3.39;73.96
75699;BME280;64313;51.018;13.742;2023-12-04T07:35:45;99914.75;;;-3.38;74.38
75699;BME280;64313;51.018;13.742;2023-12-04T07:38:12;99921.63;;;-3.37;74.34
75699;BME280;64313;51.018;13.742;2023-12-04T07:40:37;99924.09;;;-3.35;73.89
75699;BME280;64313;51.018;13.742;2023-12-04T07:43:03;99921.41;;;-3.34;74.46
75699;BME280;64313;51.018;13.742;2023-12-04T07:45:28;99923.91;;;-3.32;74.11
75699;BME280;64313;51.018;13.742;2023-12-04T07:47:53;99925.56;;;-3.31;73.86
75699;BME280;64313;51.018;13.742;2023-12-04T07:50:19;99920.22;;;-3.30;73.67
75699;BME280;64313;51.018;13.742;2023-12-04T07:52:44;99921.66;;;-3.25;74.70
75699;BME280;64313;51.018;13.742;2023-12-04T07:55:09;99921.34;;;-3.21;73.64
75699;BME280;64313;51.018;13.742;2023-12-04T07:57:34;99912.44;;;-3.18;73.36
75699;BME280;64313;51.018;13.742;2023-12-04T08:00:00;99907.91;;;-3.16;73.58
75699;BME280;64313;51.018;13.742;2023-12-04T08:02:25;99908.66;;;-3.14;73.46
75699;BME280;64313;51.018;13.742;2023-12-04T08:04:50;99911.03;;;-3.11;73.46
75699;BME280;64313;51.018;13.742;2023-12-04T08:07:16;99905.69;;;-3.10;73.29
75699;BME280;64313;51.018;13.742;2023-12-04T08:09:41;99908.06;;;-3.07;73.12
75699;BME280;64313;51.018;13.742;2023-12-04T08:12:07;99908.78;;;-3.05;73.35
75699;BME280;64313;51.018;13.742;2023-12-04T08:14:32;99899.78;;;-3.01;73.05
75699;BME280;64313;51.018;13.742;2023-12-04T08:16:58;99904.75;;;-2.97;72.87
75699;BME280;64313;51.018;13.742;2023-12-04T08:19:23;99899.31;;;-2.94;72.39
75699;BME280;64313;51.018;13.742;2023-12-04T08:21:48;99895.63;;;-2.92;72.44
75699;BME280;64313;51.018;13.742;2023-12-04T08:24:14;99898.03;;;-2.89;73.22
75699;BME280;64313;51.018;13.742;2023-12-04T08:26:41;99888.28;;;-2.87;72.62
75699;BME280;64313;51.018;13.742;2023-12-04T08:29:07;99898.38;;;-2.82;72.52
75699;BME280;64313;51.018;13.742;2023-12-04T08:31:32;99899.78;;;-2.78;72.69
75699;BME280;64313;51.018;13.742;2023-12-04T08:33:57;99896.00;;;-2.74;72.78
75699;BME280;64313;51.018;13.742;2023-12-04T08:36:23;99891.25;;;-2.69;72.15
75699;BME280;64313;51.018;13.742;2023-12-04T08:38:48;99892.56;;;-2.63;72.11
75699;BME280;64313;51.018;13.742;2023-12-04T08:41:13;99885.19;;;-2.58;71.75
75699;BME280;64313;51.018;13.742;2023-12-04T08:43:39;99899.47;;;-2.51;71.79
75699;BME280;64313;51.018;13.742;2023-12-04T08:46:04;99886.00;;;-2.47;71.88
75699;BME280;64313;51.018;13.742;2023-12-04T08:48:29;99896.69;;;-2.38;71.77
75699;BME280;64313;51.018;13.742;2023-12-04T08:50:55;99891.94;;;-2.33;71.10
75699;BME280;64313;51.018;13.742;2023-12-04T08:53:20;99888.00;;;-2.28;70.43
75699;BME280;64313;51.018;13.742;2023-12-04T08:55:46;99877.22;;;-2.23;70.75
75699;BME280;64313;51.018;13.742;2023-12-04T08:58:12;99883.81;;;-2.19;70.26
75699;BME280;64313;51.018;13.742;2023-12-04T09:00:37;99880.16;;;-2.16;69.77
75699;BME280;64313;51.018;13.742;2023-12-04T09:03:08;99872.06;;;-2.13;69.84
75699;BME280;64313;51.018;13.742;2023-12-04T09:05:33;99876.22;;;-2.11;70.17
75699;BME280;64313;51.018;13.742;2023-12-04T09:07:58;99875.13;;;-2.08;70.54
75699;BME280;64313;51.018;13.742;2023-12-04T09:10:24;99876.78;;;-2.07;69.65
75699;BME280;64313;51.018;13.742;2023-12-04T09:12:49;99873.94;;;-2.04;69.91
75699;BME280;64313;51.018;13.742;2023-12-04T09:15:14;99871.22;;;-2.03;68.91
75699;BME280;64313;51.018;13.742;2023-12-04T09:17:39;99877.97;;;-2.00;69.83
75699;BME280;64313;51.018;13.742;2023-12-04T09:20:06;99867.28;;;-1.97;69.97
75699;BME280;64313;51.018;13.742;2023-12-04T09:22:31;99872.50;;;-1.97;68.98
75699;BME280;64313;51.018;13.742;2023-12-04T09:24:56;99874.97;;;-1.96;69.66
75699;BME280;64313;51.018;13.742;2023-12-04T09:27:22;99880.09;;;-1.94;69.50
75699;BME280;64313;51.018;13.742;2023-12-04T09:29:48;99865.94;;;-1.92;69.42
75699;BME280;64313;51.018;13.742;2023-12-04T09:32:13;99866.53;;;-1.88;69.24
75699;BME280;64313;51.018;13.742;2023-12-04T09:34:39;99869.72;;;-1.84;68.91
75699;BME280;64313;51.018;13.742;2023-12-04T09:37:04;99856.38;;;-1.81;69.18
75699;BME280;64313;51.018;13.742;2023-12-04T09:39:29;99856.03;;;-1.77;68.93
75699;BME280;64313;51.018;13.742;2023-12-04T09:41:55;99859.22;;;-1.73;69.01
75699;BME280;64313;51.018;13.742;2023-12-04T09:44:22;99855.25;;;-1.68;69.05
75699;BME280;64313;51.018;13.742;2023-12-04T09:46:50;99843.59;;;-1.64;69.17
75699;BME280;64313;51.018;13.742;2023-12-04T09:49:17;99841.44;;;-1.58;68.83
75699;BME280;64313;51.018;13.742;2023-12-04T09:51:43;99844.63;;;-1.55;68.90
75699;BME280;64313;51.018;13.742;2023-12-04T09:54:09;99832.97;;;-1.51;68.83
75699;BME280;64313;51.018;13.742;2023-12-04T09:56:34;99835.44;;;-1.49;68.85
75699;BME280;64313;51.018;13.742;2023-12-04T09:59:00;99821.41;;;-1.48;69.26
75699;BME280;64313;51.018;13.742;2023-12-04T10:01:28;99822.13;;;-1.46;68.91
75699;BME280;64313;51.018;13.742;2023-12-04T10:03:54;99811.53;;;-1.45;68.90
75699;BME280;64313;51.018;13.742;2023-12-04T10:06:23;99814.97;;;-1.44;68.79
75699;BME280;64313;51.018;13.742;2023-12-04T10:08:51;99795.59;;;-1.42;68.80
75699;BME280;64313;51.018;13.742;2023-12-04T10:11:17;99797.25;;;-1.41;68.62
75699;BME280;64313;51.018;13.742;2023-12-04T10:13:42;99783.19;;;-1.40;68.66
75699;BME280;64313;51.018;13.742;2023-12-04T10:16:07;99779.75;;;-1.40;68.31
75699;BME280;64313;51.018;13.742;2023-12-04T10:18:33;99784.84;;;-1.39;68.75
75699;BME280;64313;51.018;13.742;2023-12-04T10:20:59;99781.28;;;-1.38;68.38
75699;BME280;64313;51.018;13.742;2023-12-04T10:23:39;99773.28;;;-1.36;68.97
75699;BME280;64313;51.018;13.742;2023-12-04T10:26:06;99767.00;;;-1.33;69.28
75699;BME280;64313;51.018;13.742;2023-12-04T10:28:32;99764.91;;;-1.30;68.93
75699;BME280;64313;51.018;13.742;2023-12-04T10:30:58;99762.88;;;-1.26;68.45
75699;BME280;64313;51.018;13.742;2023-12-04T10:33:24;99761.78;;;-1.24;68.37
75699;BME280;64313;51.018;13.742;2023-12-04T10:35:51;99758.19;;;-1.23;67.98
75699;BME280;64313;51.018;13.742;2023-12-04T10:38:18;99752.72;;;-1.20;67.72
75699;BME280;64313;51.018;13.742;2023-12-04T10:40:43;99754.38;;;-1.19;67.62
75699;BME280;64313;51.018;13.742;2023-12-04T10:45:37;99751.75;;;-1.19;67.58
75699;BME280;64313;51.018;13.742;2023-12-04T10:48:04;99741.28;;;-1.19;67.42
75699;BME280;64313;51.018;13.742;2023-12-04T10:50:32;99744.72;;;-1.18;67.00
75699;BME280;64313;51.018;13.742;2023-12-04T10:53:00;99750.78;;;-1.18;67.30
75699;BME280;64313;51.018;13.742;2023-12-04T10:55:26;99741.16;;;-1.17;67.16
75699;BME280;64313;51.018;13.742;2023-12-04T10:57:51;99741.97;;;-1.17;67.25
75699;BME280;64313;51.018;13.742;2023-12-04T11:00:19;99741.03;;;-1.16;66.96
75699;BME280;64313;51.018;13.742;2023-12-04T11:02:48;99732.34;;;-1.16;66.95
75699;BME280;64313;51.018;13.742;2023-12-04T11:05:15;99735.66;;;-1.14;66.62
75699;BME280;64313;51.018;13.742;2023-12-04T11:07:51;99730.56;;;-1.16;66.99
75699;BME280;64313;51.018;13.742;2023-12-04T11:10:21;99727.97;;;-1.16;66.44
75699;BME280;64313;51.018;13.742;2023-12-04T11:12:50;99723.41;;;-1.14;67.21
75699;BME280;64313;51.018;13.742;2023-12-04T11:15:17;99733.06;;;-1.14;67.06
75699;BME280;64313;51.018;13.742;2023-12-04T11:17:49;99721.63;;;-1.13;66.82
75699;BME280;64313;51.018;13.742;2023-12-04T11:20:21;99723.28;;;-1.12;66.88
75699;BME280;64313;51.018;13.742;2023-12-04T11:22:49;99705.91;;;-1.13;66.92
75699;BME280;64313;51.018;13.742;2023-12-04T11:25:16;99699.03;;;-1.14;66.17
75699;BME280;64313;51.018;13.742;2023-12-04T11:27:42;99697.38;;;-1.15;66.37
75699;BME280;64313;51.018;13.742;2023-12-04T11:30:08;99691.31;;;-1.16;66.50
75699;BME280;64313;51.018;13.742;2023-12-04T11:32:45;99684.41;;;-1.17;66.67
75699;BME280;64313;51.018;13.742;2023-12-04T11:35:17;99677.53;;;-1.18;66.63
75699;BME280;64313;51.018;13.742;2023-12-04T11:37:44;99670.63;;;-1.19;66.76
75699;BME280;64313;51.018;13.742;2023-12-04T11:40:14;99669.81;;;-1.19;67.00
75699;BME280;64313;51.018;13.742;2023-12-04T11:42:41;99659.34;;;-1.19;67.40
75699;BME280;64313;51.018;13.742;2023-12-04T11:45:06;99647.22;;;-1.20;66.89
75699;BME280;64313;51.018;13.742;2023-12-04T11:47:51;99639.38;;;-1.20;67.58
75699;BME280;64313;51.018;13.742;2023-12-04T11:50:21;99631.53;;;-1.20;67.25
75699;BME280;64313;51.018;13.742;2023-12-04T11:52:47;99629.06;;;-1.22;67.55
75699;BME280;64313;51.018;13.742;2023-12-04T11:59:04;99616.81;;;-1.21;67.64
75699;BME280;64313;51.018;13.742;2023-12-04T12:01:33;99619.41;;;-1.21;66.62
75699;BME280;64313;51.018;13.742;2023-12-04T12:03:59;99594.91;;;-1.20;67.02
75699;BME280;64313;51.018;13.742;2023-12-04T12:06:26;99601.78;;;-1.19;67.55
75699;BME280;64313;51.018;13.742;2023-12-04T12:08:52;99600.81;;;-1.18;67.40
75699;BME280;64313;51.018;13.742;2023-12-04T12:11:17;99593.78;;;-1.18;66.92
75699;BME280;64313;51.018;13.742;2023-12-04T12:13:44;99595.44;;;-1.17;67.39
75699;BME280;64313;51.018;13.742;2023-12-04T12:16:10;99588.41;;;-1.16;66.87
75699;BME280;64313;51.018;13.742;2023-12-04T12:18:36;99575.34;;;-1.16;66.48
75699;BME280;64313;51.018;13.742;2023-12-04T12:21:01;99570.97;;;-1.16;66.38
75699;BME280;64313;51.018;13.742;2023-12-04T12:23:27;99578.66;;;-1.14;67.06
75699;BME280;64313;51.018;13.742;2023-12-04T12:25:52;99580.31;;;-1.13;67.23
75699;BME280;64313;51.018;13.742;2023-12-04T12:28:17;99570.66;;;-1.13;67.17
75699;BME280;64313;51.018;13.742;2023-12-04T12:30:44;99575.91;;;-1.13;66.97
75699;BME280;64313;51.018;13.742;2023-12-04T12:34:02;99571.25;;;-1.09;66.41
75699;BME280;64313;51.018;13.742;2023-12-04T12:36:28;99559.09;;;-1.10;66.03
75699;BME280;64313;51.018;13.742;2023-12-04T12:38:54;99570.28;;;-1.08;66.16
75699;BME280;64313;51.018;13.742;2023-12-04T12:41:19;99556.22;;;-1.07;66.64
75699;BME280;64313;51.018;13.742;2023-12-04T12:43:45;99564.06;;;-1.07;66.56
75699;BME280;64313;51.018;13.742;2023-12-04T12:46:11;99561.44;;;-1.07;66.46